Fedora — SLKU — position and weather

sailwx.info

Track history (hours):
 
Tides and Currents Weather Stations Pressure Air Temp Water Temp Dewpoint Dewpoint Depression Visibility Wind Speed Wind Dir Waves Ship Positions

Fedora

Last reported at 2017-Oct-02 23:22 UTC. Time now 2017-Oct-19 09:28 UTC.
Position N 33°46' W 123°57'.
Warning: this ship's position is 16 days out of date.

Length 228 m; draft 8.1 m.

Type: Cargo ship. MMSI: 266259000.

Date/timePositionNaut miles runAvg speedWind from/ knotsBaromVisibWave heightAir tempDewpointWater temp
2017-Oct-02 23:22N 33°46' W 123°57'410.6
2017-Oct-02 23:00N 33°47' W 123°52'1310.7
2017-Oct-02 21:50N 33°50' W 123°38'410.7
2017-Oct-02 21:30N 33°51' W 123°34'710.7
2017-Oct-02 20:49N 33°53' W 123°25'410.7
2017-Oct-02 20:25N 33°54' W 123°20'410.9
2017-Oct-02 20:00N 33°55' W 123°15'510.8
2017-Oct-02 19:31N 33°57' W 123°09'510.6
2017-Oct-02 19:01N 33°58' W 123°02'510.4
2017-Oct-02 18:31N 33°59' W 122°56'510.6
2017-Oct-02 18:01N 34°00' W 122°50'510.6
2017-Oct-02 17:31N 34°02' W 122°44'510.6
2017-Oct-02 17:01N 34°03' W 122°38'510.5
2017-Oct-02 16:31N 34°04' W 122°32'510.4
2017-Oct-02 16:01N 34°06' W 122°26'510.5
2017-Oct-02 15:31N 34°08' W 122°20'510.4
2017-Oct-02 15:01N 34°09' W 122°13'510.4
2017-Oct-02 14:31N 34°10' W 122°07'510.5
2017-Oct-02 14:00N 34°12' W 122°01'510.7
2017-Oct-02 13:31N 34°13' W 121°55'510.6
2017-Oct-02 13:00N 34°14' W 121°49'510.4
2017-Oct-02 12:31N 34°16' W 121°43'510.0
2017-Oct-02 11:59N 34°17' W 121°36'510.3
2017-Oct-02 11:31N 34°18' W 121°31'510.3
2017-Oct-02 11:01N 34°19' W 121°25'510.4
2017-Oct-02 10:31N 34°21' W 121°19'510.5
2017-Oct-02 10:01N 34°22' W 121°12'510.4
2017-Oct-02 09:29N 34°23' W 121°06'510.4
2017-Oct-02 08:59N 34°24' W 120°60'610.5
2017-Oct-02 08:27N 34°26' W 120°53'610.0
2017-Oct-02 07:52N 34°25' W 120°46'4 9.8
2017-Oct-02 07:30N 34°24' W 120°42'5 9.5
2017-Oct-02 07:00N 34°23' W 120°37'5 9.8
2017-Oct-02 06:30N 34°21' W 120°31'510.4
2017-Oct-02 05:59N 34°20' W 120°24'510.8
2017-Oct-02 05:30N 34°19' W 120°18'611.0
2017-Oct-02 04:59N 34°17' W 120°12'511.0
2017-Oct-02 04:29N 34°16' W 120°06'611.5
2017-Oct-02 04:00N 34°14' W 119°59'611.6
2017-Oct-02 03:31N 34°13' W 119°52'611.1
2017-Oct-02 02:59N 34°11' W 119°46'510.4
2017-Oct-02 02:30N 34°10' W 119°39'510.6
2017-Oct-02 02:01N 34°09' W 119°33'611.2
2017-Oct-02 01:28N 34°07' W 119°26'511.4
2017-Oct-02 01:01N 34°05' W 119°20'510.0
2017-Oct-02 00:31N 34°07' W 119°15'3 5.7
2017-Oct-02 00:00N 34°09' W 119°12'0 0.1
2017-Oct-01 23:21N 34°09' W 119°12'0 0.0
2017-Oct-01 23:00N 34°09' W 119°12'0 0.0
2017-Oct-01 22:30N 34°09' W 119°12'0 0.0
2017-Oct-01 22:00N 34°09' W 119°12'0 0.0
2017-Oct-01 21:15N 34°09' W 119°12'0 0.0
2017-Oct-01 20:51N 34°09' W 119°12'0 0.0
2017-Oct-01 20:21N 34°09' W 119°12'0 0.0
2017-Oct-01 19:57N 34°09' W 119°12'0 0.0
2017-Oct-01 19:30N 34°09' W 119°12'0 0.0
2017-Oct-01 18:51N 34°09' W 119°12'0 0.0
2017-Oct-01 18:27N 34°09' W 119°12'0 0.0
2017-Oct-01 18:00N 34°09' W 119°12'0 0.0
2017-Oct-01 17:09N 34°09' W 119°12'0 0.0
2017-Oct-01 14:15N 34°09' W 119°12'0 0.0
2017-Oct-01 14:00N 34°09' W 119°12'0 0.0
2017-Oct-01 13:30N 34°09' W 119°12'0 0.0
2017-Oct-01 12:55N 34°09' W 119°12'0 0.5
2017-Oct-01 12:30N 34°09' W 119°13'3 6.5
2017-Oct-01 12:00N 34°06' W 119°15'4 8.3
2017-Oct-01 11:30N 34°03' W 119°12'713.4
2017-Oct-01 11:00N 33°60' W 119°05'612.8
2017-Oct-01 10:30N 33°54' W 119°00'815.6
2017-Oct-01 10:00N 33°47' W 118°58'816.4
2017-Oct-01 09:30N 33°39' W 118°55'816.1
2017-Oct-01 09:01N 33°31' W 118°52'816.8
2017-Oct-01 08:30N 33°23' W 118°50'917.2
2017-Oct-01 08:00N 33°15' W 118°47'816.8
2017-Oct-01 07:31N 33°07' W 118°44'816.5
2017-Oct-01 07:00N 32°59' W 118°40'816.4
2017-Oct-01 06:30N 32°52' W 118°36'816.2
2017-Oct-01 06:00N 32°45' W 118°31'816.2
2017-Oct-01 05:30N 32°38' W 118°27'816.2
2017-Oct-01 05:00N 32°31' W 118°22'816.1
2017-Oct-01 04:30N 32°24' W 118°17'815.8
2017-Oct-01 04:00N 32°16' W 118°13'815.8
2017-Oct-01 03:31N 32°09' W 118°09'815.8
2017-Oct-01 03:00N 32°02' W 118°05'39215.7
2017-Sep-30 02:00N 26°22' W 114°21'815.7
2017-Sep-30 01:30N 26°16' W 114°15'  
Track history (hours):
 
Tides and Currents Weather Stations Pressure Air Temp Water Temp Dewpoint Dewpoint Depression Visibility Wind Speed Wind Dir Waves Ship Positions

Fedora

Last reported at 2017-Oct-02 23:22 UTC. Time now 2017-Oct-19 09:28 UTC.
Position N 33°46' W 123°57'.
Warning: this ship's position is 16 days out of date.

Length 228 m; draft 8.1 m.

Type: Cargo ship. MMSI: 266259000.

Date/timePositionNaut miles runAvg speedWind from/ knotsBaromVisibWave heightAir tempDewpointWater temp
2017-Oct-02 23:22N 33°46' W 123°57'410.6
2017-Oct-02 23:00N 33°47' W 123°52'1310.7
2017-Oct-02 21:50N 33°50' W 123°38'410.7
2017-Oct-02 21:30N 33°51' W 123°34'710.7
2017-Oct-02 20:49N 33°53' W 123°25'410.7
2017-Oct-02 20:25N 33°54' W 123°20'410.9
2017-Oct-02 20:00N 33°55' W 123°15'510.8
2017-Oct-02 19:31N 33°57' W 123°09'510.6
2017-Oct-02 19:01N 33°58' W 123°02'510.4
2017-Oct-02 18:31N 33°59' W 122°56'510.6
2017-Oct-02 18:01N 34°00' W 122°50'510.6
2017-Oct-02 17:31N 34°02' W 122°44'510.6
2017-Oct-02 17:01N 34°03' W 122°38'510.5
2017-Oct-02 16:31N 34°04' W 122°32'510.4
2017-Oct-02 16:01N 34°06' W 122°26'510.5
2017-Oct-02 15:31N 34°08' W 122°20'510.4
2017-Oct-02 15:01N 34°09' W 122°13'510.4
2017-Oct-02 14:31N 34°10' W 122°07'510.5
2017-Oct-02 14:00N 34°12' W 122°01'510.7
2017-Oct-02 13:31N 34°13' W 121°55'510.6
2017-Oct-02 13:00N 34°14' W 121°49'510.4
2017-Oct-02 12:31N 34°16' W 121°43'510.0
2017-Oct-02 11:59N 34°17' W 121°36'510.3
2017-Oct-02 11:31N 34°18' W 121°31'510.3
2017-Oct-02 11:01N 34°19' W 121°25'510.4
2017-Oct-02 10:31N 34°21' W 121°19'510.5
2017-Oct-02 10:01N 34°22' W 121°12'510.4
2017-Oct-02 09:29N 34°23' W 121°06'510.4
2017-Oct-02 08:59N 34°24' W 120°60'610.5
2017-Oct-02 08:27N 34°26' W 120°53'610.0
2017-Oct-02 07:52N 34°25' W 120°46'4 9.8
2017-Oct-02 07:30N 34°24' W 120°42'5 9.5
2017-Oct-02 07:00N 34°23' W 120°37'5 9.8
2017-Oct-02 06:30N 34°21' W 120°31'510.4
2017-Oct-02 05:59N 34°20' W 120°24'510.8
2017-Oct-02 05:30N 34°19' W 120°18'611.0
2017-Oct-02 04:59N 34°17' W 120°12'511.0
2017-Oct-02 04:29N 34°16' W 120°06'611.5
2017-Oct-02 04:00N 34°14' W 119°59'611.6
2017-Oct-02 03:31N 34°13' W 119°52'611.1
2017-Oct-02 02:59N 34°11' W 119°46'510.4
2017-Oct-02 02:30N 34°10' W 119°39'510.6
2017-Oct-02 02:01N 34°09' W 119°33'611.2
2017-Oct-02 01:28N 34°07' W 119°26'511.4
2017-Oct-02 01:01N 34°05' W 119°20'510.0
2017-Oct-02 00:31N 34°07' W 119°15'3 5.7
2017-Oct-02 00:00N 34°09' W 119°12'0 0.1
2017-Oct-01 23:21N 34°09' W 119°12'0 0.0
2017-Oct-01 23:00N 34°09' W 119°12'0 0.0
2017-Oct-01 22:30N 34°09' W 119°12'0 0.0
2017-Oct-01 22:00N 34°09' W 119°12'0 0.0
2017-Oct-01 21:15N 34°09' W 119°12'0 0.0
2017-Oct-01 20:51N 34°09' W 119°12'0 0.0
2017-Oct-01 20:21N 34°09' W 119°12'0 0.0
2017-Oct-01 19:57N 34°09' W 119°12'0 0.0
2017-Oct-01 19:30N 34°09' W 119°12'0 0.0
2017-Oct-01 18:51N 34°09' W 119°12'0 0.0
2017-Oct-01 18:27N 34°09' W 119°12'0 0.0
2017-Oct-01 18:00N 34°09' W 119°12'0 0.0
2017-Oct-01 17:09N 34°09' W 119°12'0 0.0
2017-Oct-01 14:15N 34°09' W 119°12'0 0.0
2017-Oct-01 14:00N 34°09' W 119°12'0 0.0
2017-Oct-01 13:30N 34°09' W 119°12'0 0.0
2017-Oct-01 12:55N 34°09' W 119°12'0 0.5
2017-Oct-01 12:30N 34°09' W 119°13'3 6.5
2017-Oct-01 12:00N 34°06' W 119°15'4 8.3
2017-Oct-01 11:30N 34°03' W 119°12'713.4
2017-Oct-01 11:00N 33°60' W 119°05'612.8
2017-Oct-01 10:30N 33°54' W 119°00'815.6
2017-Oct-01 10:00N 33°47' W 118°58'816.4
2017-Oct-01 09:30N 33°39' W 118°55'816.1
2017-Oct-01 09:01N 33°31' W 118°52'816.8
2017-Oct-01 08:30N 33°23' W 118°50'917.2
2017-Oct-01 08:00N 33°15' W 118°47'816.8
2017-Oct-01 07:31N 33°07' W 118°44'816.5
2017-Oct-01 07:00N 32°59' W 118°40'816.4
2017-Oct-01 06:30N 32°52' W 118°36'816.2
2017-Oct-01 06:00N 32°45' W 118°31'816.2
2017-Oct-01 05:30N 32°38' W 118°27'816.2
2017-Oct-01 05:00N 32°31' W 118°22'816.1
2017-Oct-01 04:30N 32°24' W 118°17'815.8
2017-Oct-01 04:00N 32°16' W 118°13'815.8
2017-Oct-01 03:31N 32°09' W 118°09'815.8
2017-Oct-01 03:00N 32°02' W 118°05'39215.7
2017-Sep-30 02:00N 26°22' W 114°21'815.7
2017-Sep-30 01:30N 26°16' W 114°15'  

Dump ship's entire track history